PWSweather.com
Personal Weather Stations
Station Observations
GEELONGWX1
Bell Post Hill, GeelongAU

Bell Post HillGeelongAU

Lat: -38.101, Lon: 144.326

Elevation: 204

Station Type: Davis Vantage Pro2

http://www.geelongweather.com

Latest ConditionsUpdated 6:00:00 PM GMT+10:10 Thursday, Dec 12, 2019
Currently Today's Max Today's Min Today's Average
Temperature 61.8°F16.6°C 69.2°F20.7°C 53.8°F12.1°C 60.7°F15.9°C
Dew Point 49.5°F9.7°C 54.1°F12.3°C 48.1°F8.9°C 49.9°F9.9°C
Winds 6.9 mph SE11.1 kmh SE 10.4 mph -16.7 kmh - - 4.8 mph 7.7 kmh
Wind Gusts 10.4 mph16.7 kmh 19.6 mph31.5 kmh - -
Humidity 64% 89% 48% 69%
Pressure 30.14 in1020.7 mb 30.17 in1021.7 mb 30.09 in1019.0 mb -
Precipitation - 0.01 in0.3 mm - -
Hour Temp Dew Point Humidity Winds Wind Gusts Pressure Precip Precip Rate Daily Precip Total
06:00 PM 61.8°F16.6°C 49.5°F9.7°C 64% 6.9 mph SE11.1 kmh SE 10.4 mph16.7 kmh 30.14 in1020.7 mb - 0.00 in0.0 mm 0.01 in0.3 mm
05:50 PM 62.0°F16.7°C 49.3°F9.6°C 63% 5.8 mph ESE9.3 kmh ESE 8.1 mph13.0 kmh 30.14 in1020.7 mb - 0.00 in0.0 mm 0.01 in0.3 mm
05:40 PM 62.5°F16.9°C 49.3°F9.6°C 62% 4.6 mph ESE7.4 kmh ESE 10.4 mph16.7 kmh 30.14 in1020.7 mb - 0.00 in0.0 mm 0.01 in0.3 mm
05:30 PM 63.1°F17.3°C 49.9°F9.9°C 62% 6.9 mph ESE11.1 kmh ESE 11.5 mph18.5 kmh 30.14 in1020.7 mb - 0.00 in0.0 mm 0.01 in0.3 mm
05:20 PM 63.4°F17.4°C 49.7°F9.8°C 61% 5.8 mph ESE9.3 kmh ESE 11.5 mph18.5 kmh 30.13 in1020.3 mb - 0.00 in0.0 mm 0.01 in0.3 mm
05:10 PM 63.7°F17.6°C 50.4°F10.2°C 62% 6.9 mph E11.1 kmh E 13.8 mph22.2 kmh 30.13 in1020.3 mb - 0.00 in0.0 mm 0.01 in0.3 mm
05:00 PM 64.0°F17.8°C 50.3°F10.2°C 61% 6.9 mph E11.1 kmh E 8.1 mph13.0 kmh 30.12 in1020.0 mb - 0.00 in0.0 mm 0.01 in0.3 mm
04:50 PM 64.8°F18.2°C 50.6°F10.3°C 60% 6.9 mph ESE11.1 kmh ESE 13.8 mph22.2 kmh 30.12 in1020.0 mb - 0.00 in0.0 mm 0.01 in0.3 mm
04:40 PM 65.4°F18.6°C 51.1°F10.6°C 60% 5.8 mph E9.3 kmh E 12.7 mph20.4 kmh 30.12 in1020.0 mb - 0.00 in0.0 mm 0.01 in0.3 mm
04:30 PM 66.1°F18.9°C 51.4°F10.8°C 59% 4.6 mph ESE7.4 kmh ESE 11.5 mph18.5 kmh 30.12 in1020.0 mb - 0.00 in0.0 mm 0.01 in0.3 mm
04:20 PM 66.8°F19.3°C 50.6°F10.3°C 56% 5.8 mph E9.3 kmh E 11.5 mph18.5 kmh 30.12 in1020.0 mb - 0.00 in0.0 mm 0.01 in0.3 mm
04:10 PM 67.1°F19.5°C 49.9°F9.9°C 54% 4.6 mph ESE7.4 kmh ESE 6.9 mph11.1 kmh 30.12 in1020.0 mb - 0.00 in0.0 mm 0.01 in0.3 mm
04:00 PM 67.3°F19.6°C 50.6°F10.3°C 55% 3.5 mph SE5.6 kmh SE 8.1 mph13.0 kmh 30.12 in1020.0 mb - 0.00 in0.0 mm 0.01 in0.3 mm
03:50 PM 67.4°F19.7°C 49.7°F9.8°C 53% Calm Calm -- 30.12 in1020.0 mb - 0.00 in0.0 mm 0.01 in0.3 mm
03:40 PM 67.2°F19.6°C 50.0°F10.0°C 54% 3.5 mph SSE5.6 kmh SSE 5.8 mph9.3 kmh 30.12 in1020.0 mb - 0.00 in0.0 mm 0.01 in0.3 mm
03:30 PM 67.4°F19.7°C 50.7°F10.4°C 55% 4.6 mph SE7.4 kmh SE 6.9 mph11.1 kmh 30.12 in1020.0 mb - 0.00 in0.0 mm 0.01 in0.3 mm
03:20 PM 67.7°F19.8°C 50.5°F10.3°C 54% 5.8 mph E9.3 kmh E 9.2 mph14.8 kmh 30.12 in1020.0 mb - 0.00 in0.0 mm 0.01 in0.3 mm
03:10 PM 67.7°F19.8°C 49.9°F9.9°C 53% 4.6 mph E7.4 kmh E 8.1 mph13.0 kmh 30.12 in1020.0 mb - 0.00 in0.0 mm 0.01 in0.3 mm
03:00 PM 68.3°F20.2°C 49.4°F9.7°C 51% 5.8 mph ESE9.3 kmh ESE 8.1 mph13.0 kmh 30.12 in1020.0 mb - 0.00 in0.0 mm 0.01 in0.3 mm
02:50 PM 68.9°F20.5°C 49.5°F9.7°C 50% 6.9 mph E11.1 kmh E 9.2 mph14.8 kmh 30.12 in1020.0 mb - 0.00 in0.0 mm 0.01 in0.3 mm
02:40 PM 69.2°F20.7°C 48.7°F9.3°C 48% 4.6 mph E7.4 kmh E 6.9 mph11.1 kmh 30.12 in1020.0 mb - 0.00 in0.0 mm 0.01 in0.3 mm
02:30 PM 69.0°F20.6°C 49.5°F9.7°C 50% 4.6 mph ESE7.4 kmh ESE 6.9 mph11.1 kmh 30.12 in1020.0 mb - 0.00 in0.0 mm 0.01 in0.3 mm
02:20 PM 68.5°F20.3°C 49.1°F9.5°C 50% 2.3 mph E3.7 kmh E 3.5 mph5.6 kmh 30.12 in1020.0 mb - 0.00 in0.0 mm 0.01 in0.3 mm
02:10 PM 68.1°F20.1°C 48.8°F9.3°C 50% 1.2 mph N1.9 kmh N 2.3 mph3.7 kmh 30.13 in1020.3 mb - 0.00 in0.0 mm 0.01 in0.3 mm
02:00 PM 68.2°F20.1°C 49.9°F9.9°C 52% 3.5 mph ESE5.6 kmh ESE 5.8 mph9.3 kmh 30.13 in1020.3 mb - 0.00 in0.0 mm 0.01 in0.3 mm
01:50 PM 68.3°F20.2°C 49.5°F9.7°C 51% 4.6 mph SE7.4 kmh SE 6.9 mph11.1 kmh 30.13 in1020.3 mb - 0.00 in0.0 mm 0.01 in0.3 mm
01:40 PM 68.5°F20.3°C 49.6°F9.8°C 51% 5.8 mph E9.3 kmh E 6.9 mph11.1 kmh 30.13 in1020.3 mb - 0.00 in0.0 mm 0.01 in0.3 mm
01:30 PM 67.9°F19.9°C 50.1°F10.1°C 53% 3.5 mph S5.6 kmh S 3.5 mph5.6 kmh 30.13 in1020.3 mb - 0.00 in0.0 mm 0.01 in0.3 mm
01:20 PM 67.6°F19.8°C 48.8°F9.3°C 51% 3.5 mph ESE5.6 kmh ESE 4.6 mph7.4 kmh 30.14 in1020.7 mb - 0.00 in0.0 mm 0.01 in0.3 mm
01:10 PM 68.0°F20.0°C 49.7°F9.8°C 52% 3.5 mph E5.6 kmh E 5.8 mph9.3 kmh 30.14 in1020.7 mb - 0.00 in0.0 mm 0.01 in0.3 mm
01:00 PM 67.6°F19.8°C 50.8°F10.4°C 55% 3.5 mph SSE5.6 kmh SSE 6.9 mph11.1 kmh 30.14 in1020.7 mb - 0.00 in0.0 mm 0.01 in0.3 mm
12:50 PM 66.9°F19.4°C 49.2°F9.6°C 53% 4.6 mph S7.4 kmh S 5.8 mph9.3 kmh 30.14 in1020.7 mb - 0.00 in0.0 mm 0.01 in0.3 mm
12:40 PM 66.7°F19.3°C 49.5°F9.7°C 54% 6.9 mph S11.1 kmh S 6.9 mph11.1 kmh 30.15 in1021.0 mb - 0.00 in0.0 mm 0.01 in0.3 mm
12:30 PM 66.6°F19.2°C 49.4°F9.7°C 54% 6.9 mph SSE11.1 kmh SSE 9.2 mph14.8 kmh 30.15 in1021.0 mb - 0.00 in0.0 mm 0.01 in0.3 mm
12:20 PM 66.2°F19.0°C 49.6°F9.8°C 55% 5.8 mph S9.3 kmh S 10.4 mph16.7 kmh 30.15 in1021.0 mb - 0.00 in0.0 mm 0.01 in0.3 mm
12:10 PM 65.7°F18.7°C 49.6°F9.8°C 56% 6.9 mph S11.1 kmh S 11.5 mph18.5 kmh 30.16 in1021.3 mb - 0.00 in0.0 mm 0.01 in0.3 mm
12:00 PM 65.7°F18.7°C 49.5°F9.7°C 56% 6.9 mph SW11.1 kmh SW 10.4 mph16.7 kmh 30.16 in1021.3 mb - 0.00 in0.0 mm 0.01 in0.3 mm
11:50 AM 65.0°F18.3°C 49.9°F9.9°C 58% 8.1 mph S13.0 kmh S 11.5 mph18.5 kmh 30.16 in1021.3 mb - 0.00 in0.0 mm 0.01 in0.3 mm
11:40 AM 64.2°F17.9°C 50.0°F10.0°C 60% 9.2 mph S14.8 kmh S 11.5 mph18.5 kmh 30.17 in1021.7 mb - 0.00 in0.0 mm 0.01 in0.3 mm
11:30 AM 63.9°F17.7°C 49.3°F9.6°C 59% 8.1 mph S13.0 kmh S 12.7 mph20.4 kmh 30.17 in1021.7 mb - 0.00 in0.0 mm 0.01 in0.3 mm
11:20 AM 64.1°F17.8°C 49.0°F9.4°C 58% 5.8 mph S9.3 kmh S 11.5 mph18.5 kmh 30.17 in1021.7 mb - 0.00 in0.0 mm 0.01 in0.3 mm
11:10 AM 64.5°F18.1°C 49.0°F9.4°C 57% 9.2 mph S14.8 kmh S 13.8 mph22.2 kmh 30.17 in1021.7 mb - 0.00 in0.0 mm 0.01 in0.3 mm
11:00 AM 64.7°F18.2°C 48.6°F9.2°C 56% 6.9 mph S11.1 kmh S 10.4 mph16.7 kmh 30.16 in1021.3 mb - 0.00 in0.0 mm 0.01 in0.3 mm
10:50 AM 64.3°F17.9°C 48.3°F9.1°C 56% 9.2 mph S14.8 kmh S 11.5 mph18.5 kmh 30.16 in1021.3 mb - 0.00 in0.0 mm 0.01 in0.3 mm
10:40 AM 63.5°F17.5°C 48.9°F9.4°C 59% 5.8 mph SE9.3 kmh SE 9.2 mph14.8 kmh 30.16 in1021.3 mb - 0.00 in0.0 mm 0.01 in0.3 mm
10:30 AM 62.6°F17.0°C 49.4°F9.7°C 62% 6.9 mph S11.1 kmh S 9.2 mph14.8 kmh 30.16 in1021.3 mb - 0.00 in0.0 mm 0.01 in0.3 mm
10:20 AM 61.9°F16.6°C 49.2°F9.6°C 63% 3.5 mph S5.6 kmh S 5.8 mph9.3 kmh 30.16 in1021.3 mb - 0.00 in0.0 mm 0.01 in0.3 mm
10:10 AM 62.2°F16.8°C 49.5°F9.7°C 63% 8.1 mph SSW13.0 kmh SSW 11.5 mph18.5 kmh 30.16 in1021.3 mb - 0.00 in0.0 mm 0.01 in0.3 mm
10:00 AM 62.9°F17.2°C 50.1°F10.1°C 63% 5.8 mph SSW9.3 kmh SSW 9.2 mph14.8 kmh 30.17 in1021.7 mb - 0.00 in0.0 mm 0.01 in0.3 mm
09:50 AM 63.7°F17.6°C 49.1°F9.5°C 59% 5.8 mph S9.3 kmh S 11.5 mph18.5 kmh 30.16 in1021.3 mb - 0.00 in0.0 mm 0.01 in0.3 mm
09:40 AM 64.4°F18.0°C 48.9°F9.4°C 57% 9.2 mph SSE14.8 kmh SSE 12.7 mph20.4 kmh 30.16 in1021.3 mb - 0.00 in0.0 mm 0.01 in0.3 mm
09:30 AM 65.2°F18.4°C 49.1°F9.5°C 56% 3.5 mph SSE5.6 kmh SSE 10.4 mph16.7 kmh 30.16 in1021.3 mb - 0.00 in0.0 mm 0.01 in0.3 mm
09:20 AM 66.0°F18.9°C 48.9°F9.4°C 54% 9.2 mph S14.8 kmh S 13.8 mph22.2 kmh 30.16 in1021.3 mb - 0.00 in0.0 mm 0.01 in0.3 mm
09:10 AM 66.7°F19.3°C 50.0°F10.0°C 55% 6.9 mph S11.1 kmh S 15.0 mph24.1 kmh 30.16 in1021.3 mb - 0.00 in0.0 mm 0.01 in0.3 mm
09:00 AM 65.4°F18.6°C 49.8°F9.9°C 57% 10.4 mph SSW16.7 kmh SSW 12.7 mph20.4 kmh 30.15 in1021.0 mb - 0.00 in0.0 mm 0.01 in0.3 mm
08:50 AM 64.2°F17.9°C 50.1°F10.1°C 60% 8.1 mph S13.0 kmh S 13.8 mph22.2 kmh 30.15 in1021.0 mb - 0.00 in0.0 mm 0.01 in0.3 mm
08:40 AM 63.2°F17.3°C 51.6°F10.9°C 66% 10.4 mph SSW16.7 kmh SSW 19.6 mph31.5 kmh 30.15 in1021.0 mb - 0.00 in0.0 mm 0.01 in0.3 mm
08:30 AM 61.3°F16.3°C 51.1°F10.6°C 69% 10.4 mph S16.7 kmh S 13.8 mph22.2 kmh 30.15 in1021.0 mb - 0.00 in0.0 mm 0.01 in0.3 mm
08:20 AM 60.5°F15.8°C 51.5°F10.8°C 72% 6.9 mph SSW11.1 kmh SSW 9.2 mph14.8 kmh 30.15 in1021.0 mb - 0.00 in0.0 mm 0.01 in0.3 mm
08:10 AM 59.3°F15.2°C 51.7°F10.9°C 76% 10.4 mph S16.7 kmh S 16.1 mph25.9 kmh 30.15 in1021.0 mb - 0.00 in0.0 mm 0.01 in0.3 mm
08:00 AM 58.0°F14.4°C 51.9°F11.1°C 80% 9.2 mph SSE14.8 kmh SSE 13.8 mph22.2 kmh 30.15 in1021.0 mb - 0.00 in0.0 mm 0.01 in0.3 mm
07:50 AM 57.4°F14.1°C 52.3°F11.3°C 83% 6.9 mph S11.1 kmh S 8.1 mph13.0 kmh 30.14 in1020.7 mb - 0.00 in0.0 mm 0.01 in0.3 mm
07:40 AM 57.2°F14.0°C 53.0°F11.7°C 86% 4.6 mph SSE7.4 kmh SSE 5.8 mph9.3 kmh 30.14 in1020.7 mb - 0.00 in0.0 mm 0.01 in0.3 mm
07:30 AM 57.1°F13.9°C 53.3°F11.8°C 87% 6.9 mph S11.1 kmh S 11.5 mph18.5 kmh 30.14 in1020.7 mb - 0.00 in0.0 mm 0.01 in0.3 mm
07:20 AM 57.3°F14.1°C 54.1°F12.3°C 89% 8.1 mph SSE13.0 kmh SSE 10.4 mph16.7 kmh 30.14 in1020.7 mb - 0.01 in0.3 mm 0.01 in0.3 mm
07:10 AM 57.1°F13.9°C 53.9°F12.2°C 89% 5.8 mph S9.3 kmh S 6.9 mph11.1 kmh 30.14 in1020.7 mb - 0.01 in0.3 mm 0.01 in0.3 mm
07:00 AM 56.8°F13.8°C 53.6°F12.0°C 89% 4.6 mph S7.4 kmh S 8.1 mph13.0 kmh 30.14 in1020.7 mb - 0.01 in0.3 mm 0.01 in0.3 mm
06:50 AM 56.3°F13.5°C 53.1°F11.7°C 89% 2.3 mph S3.7 kmh S 5.8 mph9.3 kmh 30.13 in1020.3 mb - 0.01 in0.3 mm 0.01 in0.3 mm
06:40 AM 55.9°F13.3°C 52.4°F11.3°C 88% 2.3 mph S3.7 kmh S 4.6 mph7.4 kmh 30.13 in1020.3 mb - 0.01 in0.3 mm 0.01 in0.3 mm
06:30 AM 55.6°F13.1°C 52.1°F11.2°C 88% 2.3 mph SSW3.7 kmh SSW 5.8 mph9.3 kmh 30.13 in1020.3 mb - 0.01 in0.3 mm 0.01 in0.3 mm
06:20 AM 55.4°F13.0°C 51.9°F11.1°C 88% 1.2 mph SW1.9 kmh SW 3.5 mph5.6 kmh 30.13 in1020.3 mb - 0.00 in0.0 mm 0.00 in0.0 mm
06:10 AM 55.3°F12.9°C 51.5°F10.8°C 87% 2.3 mph SSW3.7 kmh SSW 5.8 mph9.3 kmh 30.12 in1020.0 mb - 0.00 in0.0 mm 0.00 in0.0 mm
06:00 AM 55.2°F12.9°C 51.4°F10.8°C 87% 1.2 mph WSW1.9 kmh WSW 2.3 mph3.7 kmh 30.12 in1020.0 mb - 0.00 in0.0 mm 0.00 in0.0 mm
05:50 AM 55.1°F12.8°C 51.3°F10.7°C 87% 1.2 mph SSW1.9 kmh SSW 2.3 mph3.7 kmh 30.12 in1020.0 mb - 0.00 in0.0 mm 0.00 in0.0 mm
05:40 AM 55.0°F12.8°C 51.2°F10.7°C 87% 1.2 mph SW1.9 kmh SW 2.3 mph3.7 kmh 30.11 in1019.6 mb - 0.00 in0.0 mm 0.00 in0.0 mm
05:30 AM 55.0°F12.8°C 50.9°F10.5°C 86% 2.3 mph WSW3.7 kmh WSW 3.5 mph5.6 kmh 30.11 in1019.6 mb - 0.00 in0.0 mm 0.00 in0.0 mm
05:20 AM 54.9°F12.7°C 50.8°F10.4°C 86% 2.3 mph WSW3.7 kmh WSW 6.9 mph11.1 kmh 30.11 in1019.6 mb - 0.00 in0.0 mm 0.00 in0.0 mm
05:10 AM 54.8°F12.7°C 50.4°F10.2°C 85% 2.3 mph SW3.7 kmh SW 4.6 mph7.4 kmh 30.11 in1019.6 mb - 0.00 in0.0 mm 0.00 in0.0 mm
05:00 AM 54.8°F12.7°C 50.4°F10.2°C 85% 2.3 mph SW3.7 kmh SW 3.5 mph5.6 kmh 30.11 in1019.6 mb - 0.00 in0.0 mm 0.00 in0.0 mm
04:50 AM 54.7°F12.6°C 50.0°F10.0°C 84% 2.3 mph SSW3.7 kmh SSW 3.5 mph5.6 kmh 30.11 in1019.6 mb - 0.00 in0.0 mm 0.00 in0.0 mm
04:40 AM 54.4°F12.4°C 49.4°F9.7°C 83% 4.6 mph SSW7.4 kmh SSW 6.9 mph11.1 kmh 30.10 in1019.3 mb - 0.00 in0.0 mm 0.00 in0.0 mm
04:30 AM 54.3°F12.4°C 49.2°F9.6°C 83% 3.5 mph SSW5.6 kmh SSW 3.5 mph5.6 kmh 30.10 in1019.3 mb - 0.00 in0.0 mm 0.00 in0.0 mm
04:20 AM 54.1°F12.3°C 49.1°F9.5°C 83% 2.3 mph SSW3.7 kmh SSW 3.5 mph5.6 kmh 30.10 in1019.3 mb - 0.00 in0.0 mm 0.00 in0.0 mm
04:10 AM 54.0°F12.2°C 48.6°F9.2°C 82% 2.3 mph SSW3.7 kmh SSW 3.5 mph5.6 kmh 30.10 in1019.3 mb - 0.00 in0.0 mm 0.00 in0.0 mm
04:00 AM 53.9°F12.2°C 48.5°F9.2°C 82% 2.3 mph SW3.7 kmh SW 3.5 mph5.6 kmh 30.10 in1019.3 mb - 0.00 in0.0 mm 0.00 in0.0 mm
03:50 AM 53.8°F12.1°C 48.4°F9.1°C 82% 1.2 mph SW1.9 kmh SW 3.5 mph5.6 kmh 30.10 in1019.3 mb - 0.00 in0.0 mm 0.00 in0.0 mm
03:40 AM 53.8°F12.1°C 48.1°F8.9°C 81% 1.2 mph SW1.9 kmh SW 2.3 mph3.7 kmh 30.09 in1019.0 mb - 0.00 in0.0 mm 0.00 in0.0 mm
03:30 AM 53.8°F12.1°C 48.1°F8.9°C 81% 1.2 mph SW1.9 kmh SW 2.3 mph3.7 kmh 30.10 in1019.3 mb - 0.00 in0.0 mm 0.00 in0.0 mm
03:20 AM 53.9°F12.2°C 48.2°F9.0°C 81% 1.2 mph SW1.9 kmh SW 2.3 mph3.7 kmh 30.10 in1019.3 mb - 0.00 in0.0 mm 0.00 in0.0 mm
03:10 AM 54.1°F12.3°C 48.4°F9.1°C 81% Calm Calm -- 30.09 in1019.0 mb - 0.00 in0.0 mm 0.00 in0.0 mm
03:00 AM 54.1°F12.3°C 48.4°F9.1°C 81% Calm Calm 1.2 mph1.9 kmh 30.10 in1019.3 mb - 0.00 in0.0 mm 0.00 in0.0 mm
02:50 AM 54.2°F12.3°C 48.5°F9.2°C 81% 1.2 mph SSW1.9 kmh SSW 2.3 mph3.7 kmh 30.11 in1019.6 mb - 0.00 in0.0 mm 0.00 in0.0 mm
02:40 AM 54.2°F12.3°C 48.5°F9.2°C 81% 2.3 mph S3.7 kmh S 3.5 mph5.6 kmh 30.11 in1019.6 mb - 0.00 in0.0 mm 0.00 in0.0 mm
02:30 AM 54.2°F12.3°C 48.5°F9.2°C 81% 3.5 mph S5.6 kmh S 5.8 mph9.3 kmh 30.12 in1020.0 mb - 0.00 in0.0 mm 0.00 in0.0 mm
02:20 AM 54.2°F12.3°C 48.5°F9.2°C 81% 3.5 mph SSW5.6 kmh SSW 3.5 mph5.6 kmh 30.12 in1020.0 mb - 0.00 in0.0 mm 0.00 in0.0 mm
02:10 AM 54.2°F12.3°C 48.5°F9.2°C 81% 2.3 mph SSW3.7 kmh SSW 3.5 mph5.6 kmh 30.13 in1020.3 mb - 0.00 in0.0 mm 0.00 in0.0 mm
02:00 AM 54.2°F12.3°C 48.2°F9.0°C 80% 3.5 mph SSW5.6 kmh SSW 3.5 mph5.6 kmh 30.13 in1020.3 mb - 0.00 in0.0 mm 0.00 in0.0 mm
01:50 AM 54.3°F12.4°C 48.3°F9.1°C 80% 3.5 mph SSW5.6 kmh SSW 5.8 mph9.3 kmh 30.13 in1020.3 mb - 0.00 in0.0 mm 0.00 in0.0 mm
01:40 AM 54.5°F12.5°C 48.5°F9.2°C 80% 6.9 mph SSW11.1 kmh SSW 8.1 mph13.0 kmh 30.13 in1020.3 mb - 0.00 in0.0 mm 0.00 in0.0 mm
01:30 AM 54.7°F12.6°C 48.6°F9.2°C 80% 3.5 mph SSW5.6 kmh SSW 6.9 mph11.1 kmh 30.13 in1020.3 mb - 0.00 in0.0 mm 0.00 in0.0 mm
01:20 AM 54.8°F12.7°C 49.1°F9.5°C 81% 4.6 mph S7.4 kmh S 8.1 mph13.0 kmh 30.14 in1020.7 mb - 0.00 in0.0 mm 0.00 in0.0 mm
01:10 AM 54.8°F12.7°C 49.1°F9.5°C 81% 4.6 mph S7.4 kmh S 5.8 mph9.3 kmh 30.14 in1020.7 mb - 0.00 in0.0 mm 0.00 in0.0 mm
01:00 AM 54.9°F12.7°C 49.2°F9.6°C 81% 4.6 mph SSW7.4 kmh SSW 10.4 mph16.7 kmh 30.14 in1020.7 mb - 0.00 in0.0 mm 0.00 in0.0 mm
12:50 AM 55.0°F12.8°C 49.6°F9.8°C 82% 4.6 mph S7.4 kmh S 9.2 mph14.8 kmh 30.14 in1020.7 mb - 0.00 in0.0 mm 0.00 in0.0 mm
12:40 AM 55.2°F12.9°C 50.1°F10.1°C 83% 4.6 mph S7.4 kmh S 10.4 mph16.7 kmh 30.14 in1020.7 mb - 0.00 in0.0 mm 0.00 in0.0 mm
12:30 AM 55.1°F12.8°C 50.4°F10.2°C 84% 4.6 mph SSW7.4 kmh SSW 5.8 mph9.3 kmh 30.14 in1020.7 mb - 0.00 in0.0 mm 0.00 in0.0 mm
12:20 AM 55.0°F12.8°C 50.2°F10.1°C 84% 3.5 mph SSW5.6 kmh SSW 5.8 mph9.3 kmh 30.15 in1021.0 mb - 0.00 in0.0 mm 0.00 in0.0 mm
12:10 AM 54.8°F12.7°C 50.1°F10.1°C 84% 2.3 mph SSW3.7 kmh SSW 3.5 mph5.6 kmh 30.15 in1021.0 mb - 0.00 in0.0 mm 0.00 in0.0 mm
12:00 AM 54.7°F12.6°C 50.0°F10.0°C 84% 2.3 mph SW3.7 kmh SW 3.5 mph5.6 kmh 30.16 in1021.3 mb - 0.00 in0.0 mm 0.00 in0.0 mm